Time;durP1;ratioP1;P1;durP2;ratioP2;P2;SDS_P1;SDS_P2;PMS_P1;PMS_P2;Temp;Humidity;BMP_temperature;BMP_pressure;BME280_temperature;BME280_humidity;BME280_pressure;Samples;Min_cycle;Max_cycle;Signal;HPM_P1;HPM_P2
2021/03/25 00:01:53;;;;;;;65.57;30.80;;;;;;;;;;4407754;32;20267;-72
2021/03/25 00:04:18;;;;;;;60.40;30.27;;;;;;;;;;4423071;32;20265;-70
2021/03/25 00:06:45;;;;;;;63.47;31.43;;;;;;;;;;4423060;32;20134;-70
2021/03/25 00:09:14;;;;;;;59.87;31.63;;;;;;;;;;4422330;32;20154;-71
2021/03/25 00:11:39;;;;;;;70.70;31.03;;;;;;;;;;4422269;32;20142;-70
2021/03/25 00:14:04;;;;;;;64.87;30.50;;;;;;;;;;4422814;32;20199;-70
2021/03/25 00:16:29;;;;;;;69.13;31.93;;;;;;;;;;4411729;32;20142;-71
2021/03/25 00:18:55;;;;;;;67.87;33.13;;;;;;;;;;4408108;32;20238;-71
2021/03/25 00:21:20;;;;;;;67.57;33.63;;;;;;;;;;4406757;32;20200;-71
2021/03/25 00:23:45;;;;;;;70.47;31.77;;;;;;;;;;4408521;32;20154;-71
2021/03/25 00:26:10;;;;;;;75.33;33.33;;;;;;;;;;4406292;32;20187;-71
2021/03/25 00:28:35;;;;;;;69.23;32.70;;;;;;;;;;4408230;32;20250;-71
2021/03/25 00:31:01;;;;;;;71.60;34.30;;;;;;;;;;4392318;32;20269;-71
2021/03/25 00:33:26;;;;;;;66.40;32.37;;;;;;;;;;4406086;32;20176;-72
2021/03/25 00:35:51;;;;;;;69.20;33.53;;;;;;;;;;4407930;32;20146;-71
2021/03/25 00:38:17;;;;;;;71.47;32.67;;;;;;;;;;4407502;32;20161;-71
2021/03/25 00:40:43;;;;;;;71.83;31.73;;;;;;;;;;4406710;32;20138;-70
2021/03/25 00:43:09;;;;;;;75.93;35.00;;;;;;;;;;4407089;32;20523;-72
2021/03/25 00:45:36;;;;;;;67.23;32.43;;;;;;;;;;4406371;32;20614;-72
2021/03/25 00:48:02;;;;;;;76.70;34.47;;;;;;;;;;4406293;32;20235;-70
2021/03/25 00:50:29;;;;;;;72.13;33.23;;;;;;;;;;4392085;32;20229;-71
2021/03/25 00:52:54;;;;;;;80.33;33.83;;;;;;;;;;4407685;32;20200;-72
2021/03/25 00:55:20;;;;;;;79.93;33.83;;;;;;;;;;4406980;32;20578;-72
2021/03/25 00:57:45;;;;;;;73.47;33.33;;;;;;;;;;4416121;32;20420;-71
2021/03/25 01:00:11;;;;;;;72.37;31.70;;;;;;;;;;4420957;32;20168;-71
2021/03/25 01:02:37;;;;;;;73.87;34.43;;;;;;;;;;4415552;32;20193;-72
2021/03/25 01:05:02;;;;;;;83.63;35.73;;;;;;;;;;4406028;32;20138;-72
2021/03/25 01:07:28;;;;;;;79.87;35.27;;;;;;;;;;4407524;32;20190;-70
2021/03/25 01:09:53;;;;;;;78.20;35.23;;;;;;;;;;4405557;32;20134;-72
2021/03/25 01:12:18;;;;;;;85.87;36.90;;;;;;;;;;4405558;32;20184;-71
2021/03/25 01:14:44;;;;;;;81.13;36.43;;;;;;;;;;4407873;32;20604;-71
2021/03/25 01:17:09;;;;;;;77.10;34.70;;;;;;;;;;4407785;32;20198;-71
2021/03/25 01:19:34;;;;;;;88.83;38.20;;;;;;;;;;4406554;32;20226;-71
2021/03/25 01:21:59;;;;;;;95.43;40.13;;;;;;;;;;4405508;32;20134;-71
2021/03/25 01:24:25;;;;;;;100.07;39.87;;;;;;;;;;4407627;32;20138;-71
2021/03/25 01:26:50;;;;;;;87.23;38.23;;;;;;;;;;4407052;32;20134;-72
2021/03/25 01:29:16;;;;;;;84.87;37.63;;;;;;;;;;4405604;32;20173;-71
2021/03/25 01:31:41;;;;;;;90.93;39.03;;;;;;;;;;4405754;32;20138;-72
2021/03/25 01:34:07;;;;;;;89.03;39.07;;;;;;;;;;4406979;32;20218;-70
2021/03/25 01:36:32;;;;;;;94.87;40.50;;;;;;;;;;4405127;32;20158;-70
2021/03/25 01:38:58;;;;;;;87.10;38.03;;;;;;;;;;4405791;32;20174;-70
2021/03/25 01:41:27;;;;;;;86.80;38.83;;;;;;;;;;4405960;32;20138;-72
2021/03/25 01:43:52;;;;;;;90.80;40.80;;;;;;;;;;4407416;32;20261;-70
2021/03/25 01:46:20;;;;;;;95.77;39.83;;;;;;;;;;4404446;32;20154;-71
2021/03/25 01:48:47;;;;;;;87.40;38.37;;;;;;;;;;4392825;32;20323;-71
2021/03/25 01:51:24;;;;;;;90.97;39.10;;;;;;;;;;4405008;32;20215;-71
2021/03/25 01:54:02;;;;;;;91.53;39.20;;;;;;;;;;4391123;32;20181;-70
2021/03/25 01:56:49;;;;;;;80.67;38.87;;;;;;;;;;4392833;32;20578;-73
2021/03/25 01:59:38;;;;;;;94.80;41.27;;;;;;;;;;4405433;32;20193;-71
2021/03/25 02:02:13;;;;;;;90.87;39.97;;;;;;;;;;4405501;32;20162;-71
2021/03/25 02:04:59;;;;;;;91.33;39.47;;;;;;;;;;4404887;32;20206;-71
2021/03/25 02:07:51;;;;;;;95.17;42.07;;;;;;;;;;4391205;32;20170;-71
2021/03/25 02:10:26;;;;;;;96.53;41.40;;;;;;;;;;4392862;32;20167;-71
2021/03/25 02:12:56;;;;;;;85.10;38.97;;;;;;;;;;4390781;32;20540;-72
2021/03/25 02:15:24;;;;;;;90.03;40.00;;;;;;;;;;4406122;32;20195;-71
2021/03/25 02:17:54;;;;;;;89.20;39.67;;;;;;;;;;4406413;32;20142;-71
2021/03/25 02:20:38;;;;;;;89.17;40.20;;;;;;;;;;4406753;32;20146;-71
2021/03/25 02:23:12;;;;;;;85.73;39.43;;;;;;;;;;4392463;32;20232;-71
2021/03/25 02:25:49;;;;;;;92.40;40.10;;;;;;;;;;4409362;32;20142;-72
2021/03/25 02:28:15;;;;;;;91.13;40.77;;;;;;;;;;4417436;32;20232;-71
2021/03/25 02:30:46;;;;;;;92.50;40.73;;;;;;;;;;4375803;32;20621;-71
2021/03/25 02:33:14;;;;;;;90.43;40.43;;;;;;;;;;4389383;32;20161;-71
2021/03/25 02:35:40;;;;;;;98.93;42.90;;;;;;;;;;4375719;32;20178;-72
2021/03/25 02:38:06;;;;;;;90.20;40.50;;;;;;;;;;4376490;32;20182;-70
2021/03/25 02:40:37;;;;;;;89.77;41.30;;;;;;;;;;4391119;32;20130;-71
2021/03/25 02:43:07;;;;;;;93.30;40.77;;;;;;;;;;4389777;32;20276;-71
2021/03/25 02:45:34;;;;;;;101.47;45.23;;;;;;;;;;4404203;32;20472;-71
2021/03/25 02:48:01;;;;;;;104.83;42.77;;;;;;;;;;4390637;32;20174;-71
2021/03/25 02:50:32;;;;;;;109.47;43.50;;;;;;;;;;4405840;32;20252;-72
2021/03/25 02:53:03;;;;;;;96.70;42.87;;;;;;;;;;4405045;32;20137;-71
2021/03/25 02:55:29;;;;;;;94.77;42.27;;;;;;;;;;4406154;32;20569;-71
2021/03/25 02:58:02;;;;;;;101.10;41.83;;;;;;;;;;4392553;32;20162;-71
2021/03/25 03:00:36;;;;;;;95.87;42.07;;;;;;;;;;4409295;32;20176;-71
2021/03/25 03:03:04;;;;;;;99.57;42.83;;;;;;;;;;4394024;32;20165;-70
2021/03/25 03:05:33;;;;;;;100.57;42.87;;;;;;;;;;4409185;32;20138;-70
2021/03/25 03:08:37;;;;;;;104.17;45.93;;;;;;;;;;4407777;32;20274;-70
2021/03/25 03:11:20;;;;;;;109.60;43.80;;;;;;;;;;4331132;33;20625;-71
2021/03/25 03:13:49;;;;;;;115.90;44.87;;;;;;;;;;4331366;33;20179;-69
2021/03/25 03:16:17;;;;;;;113.50;45.07;;;;;;;;;;4378070;32;20154;-70
2021/03/25 03:18:45;;;;;;;106.57;43.70;;;;;;;;;;4409371;32;20199;-71
2021/03/25 03:21:15;;;;;;;104.23;42.80;;;;;;;;;;4407619;32;20529;-71
2021/03/25 03:23:40;;;;;;;104.63;42.87;;;;;;;;;;4409023;32;20122;-72
2021/03/25 03:26:09;;;;;;;106.80;43.73;;;;;;;;;;4409033;32;20130;-71
2021/03/25 03:28:39;;;;;;;97.20;41.37;;;;;;;;;;4394428;32;20177;-71
2021/03/25 03:31:06;;;;;;;110.43;44.53;;;;;;;;;;4394256;32;20185;-72
2021/03/25 03:33:33;;;;;;;105.80;44.93;;;;;;;;;;4394907;32;20223;-72
2021/03/25 03:36:01;;;;;;;103.40;44.30;;;;;;;;;;4405532;32;20218;-72
2021/03/25 03:38:32;;;;;;;113.47;46.27;;;;;;;;;;4407037;32;20202;-71
2021/03/25 03:40:58;;;;;;;105.53;43.40;;;;;;;;;;4409312;32;20201;-71
2021/03/25 03:43:24;;;;;;;110.53;46.53;;;;;;;;;;4407078;32;20138;-72
2021/03/25 03:45:53;;;;;;;104.43;44.80;;;;;;;;;;4394829;32;20223;-72
2021/03/25 03:48:22;;;;;;;111.40;46.57;;;;;;;;;;4408355;32;20274;-71
2021/03/25 03:50:49;;;;;;;109.37;43.70;;;;;;;;;;4408567;32;20143;-71
2021/03/25 03:53:14;;;;;;;112.70;47.07;;;;;;;;;;4408779;32;20409;-72
2021/03/25 03:55:40;;;;;;;106.77;44.97;;;;;;;;;;4407628;32;20192;-72
2021/03/25 03:58:27;;;;;;;109.83;45.80;;;;;;;;;;4407756;32;20231;-71
2021/03/25 04:01:06;;;;;;;110.67;45.60;;;;;;;;;;4392908;32;20166;-70
2021/03/25 04:03:39;;;;;;;117.53;46.17;;;;;;;;;;4393138;32;20232;-70
2021/03/25 04:06:10;;;;;;;102.10;41.03;;;;;;;;;;4392769;32;20182;-71
2021/03/25 04:08:54;;;;;;;105.17;44.37;;;;;;;;;;4406963;32;20146;-71
2021/03/25 04:11:39;;;;;;;114.17;45.57;;;;;;;;;;4408235;32;20150;-72
2021/03/25 04:14:12;;;;;;;118.73;44.87;;;;;;;;;;4392678;32;20162;-72
2021/03/25 04:16:40;;;;;;;133.83;49.30;;;;;;;;;;4393358;32;20227;-72
2021/03/25 04:19:14;;;;;;;114.13;46.07;;;;;;;;;;4408067;32;20137;-71
2021/03/25 04:21:42;;;;;;;109.57;44.77;;;;;;;;;;4407278;32;20141;-70
2021/03/25 04:24:11;;;;;;;110.10;43.97;;;;;;;;;;4393545;32;20173;-71
2021/03/25 04:26:36;;;;;;;113.00;46.40;;;;;;;;;;4392311;32;20257;-71
2021/03/25 04:29:03;;;;;;;103.07;43.70;;;;;;;;;;4398587;32;20197;-70
2021/03/25 04:31:29;;;;;;;108.77;43.80;;;;;;;;;;4391361;32;20629;-71
2021/03/25 04:33:55;;;;;;;121.60;46.00;;;;;;;;;;4392518;32;20159;-70
2021/03/25 04:36:21;;;;;;;102.63;44.17;;;;;;;;;;4391626;32;20130;-70
2021/03/25 04:38:46;;;;;;;113.17;46.03;;;;;;;;;;4392734;32;20521;-72
2021/03/25 04:41:12;;;;;;;120.67;47.97;;;;;;;;;;4392581;32;20177;-71
2021/03/25 04:43:38;;;;;;;134.40;47.83;;;;;;;;;;4391246;32;20188;-72
2021/03/25 04:46:22;;;;;;;112.07;42.37;;;;;;;;;;4390890;32;20138;-72
2021/03/25 04:48:49;;;;;;;122.97;46.80;;;;;;;;;;4392320;32;20146;-73
2021/03/25 04:51:16;;;;;;;122.40;47.27;;;;;;;;;;4391602;32;20525;-71
2021/03/25 04:53:41;;;;;;;119.97;45.33;;;;;;;;;;4391771;32;20194;-71
2021/03/25 04:56:08;;;;;;;126.40;45.97;;;;;;;;;;4392343;32;20135;-72
2021/03/25 04:58:35;;;;;;;137.37;49.50;;;;;;;;;;4390624;32;20484;-72
2021/03/25 05:01:01;;;;;;;124.40;45.97;;;;;;;;;;4391731;32;20166;-71
2021/03/25 05:03:26;;;;;;;108.50;46.20;;;;;;;;;;4390130;32;20166;-71
2021/03/25 05:05:54;;;;;;;127.57;48.57;;;;;;;;;;4392622;32;20161;-71
2021/03/25 05:08:21;;;;;;;117.27;45.30;;;;;;;;;;4392289;32;20234;-71
2021/03/25 05:11:09;;;;;;;130.63;49.57;;;;;;;;;;4389528;32;20166;-70
2021/03/25 05:13:42;;;;;;;130.50;48.13;;;;;;;;;;4390759;32;20160;-70
2021/03/25 05:16:14;;;;;;;136.67;49.67;;;;;;;;;;4391945;32;20170;-73
2021/03/25 05:18:42;;;;;;;110.53;44.77;;;;;;;;;;4392601;32;20147;-72
2021/03/25 05:21:15;;;;;;;123.60;48.17;;;;;;;;;;4391909;32;20139;-72
2021/03/25 05:23:51;;;;;;;128.77;48.67;;;;;;;;;;4391223;32;20179;-72
2021/03/25 05:26:22;;;;;;;132.57;49.63;;;;;;;;;;4391147;32;20182;-71
2021/03/25 05:28:53;;;;;;;133.20;49.60;;;;;;;;;;4395033;32;20474;-72
2021/03/25 05:31:20;;;;;;;141.37;50.23;;;;;;;;;;4407460;32;20158;-72
2021/03/25 05:33:47;;;;;;;125.17;48.17;;;;;;;;;;4405494;32;20139;-72
2021/03/25 05:36:13;;;;;;;135.83;49.67;;;;;;;;;;4391407;32;20203;-71
2021/03/25 05:38:39;;;;;;;122.43;47.03;;;;;;;;;;4406645;32;20189;-72
2021/03/25 05:41:16;;;;;;;125.40;46.93;;;;;;;;;;4392925;32;20167;-72
2021/03/25 05:43:47;;;;;;;127.20;48.00;;;;;;;;;;4405232;32;20196;-72
2021/03/25 05:46:31;;;;;;;119.33;45.57;;;;;;;;;;4405381;32;20161;-71
2021/03/25 05:49:17;;;;;;;97.63;42.33;;;;;;;;;;4406754;32;20153;-71
2021/03/25 05:51:54;;;;;;;104.70;43.00;;;;;;;;;;4406307;32;20130;-72
2021/03/25 05:54:22;;;;;;;105.83;44.90;;;;;;;;;;4406942;32;20142;-72
2021/03/25 05:56:55;;;;;;;106.87;43.33;;;;;;;;;;4405034;32;20134;-71
2021/03/25 05:59:24;;;;;;;101.07;41.70;;;;;;;;;;4405118;32;20269;-72
2021/03/25 06:01:56;;;;;;;102.90;42.27;;;;;;;;;;4406518;32;20169;-71
2021/03/25 06:04:28;;;;;;;99.33;42.50;;;;;;;;;;4406779;32;20150;-72
2021/03/25 06:06:56;;;;;;;96.50;40.67;;;;;;;;;;4392769;32;20215;-71
2021/03/25 06:09:21;;;;;;;95.27;41.63;;;;;;;;;;4401622;32;20536;-72
2021/03/25 06:11:58;;;;;;;96.97;40.73;;;;;;;;;;4389448;32;20579;-75
2021/03/25 06:14:32;;;;;;;99.17;40.37;;;;;;;;;;4390437;32;20265;-73
2021/03/25 06:17:14;;;;;;;94.07;41.33;;;;;;;;;;4392576;32;20196;-70
2021/03/25 06:19:48;;;;;;;99.40;41.10;;;;;;;;;;4396771;32;20174;-71
2021/03/25 06:22:22;;;;;;;90.63;41.30;;;;;;;;;;4380592;32;20161;-72
2021/03/25 06:25:10;;;;;;;93.43;40.70;;;;;;;;;;4391656;32;20576;-73
2021/03/25 06:27:51;;;;;;;95.87;40.73;;;;;;;;;;4389231;32;20166;-73
2021/03/25 06:30:21;;;;;;;104.80;44.87;;;;;;;;;;4396697;32;20239;-72
2021/03/25 06:32:56;;;;;;;88.67;39.53;;;;;;;;;;4393001;32;20196;-72
2021/03/25 06:35:32;;;;;;;93.90;40.10;;;;;;;;;;4398048;32;20602;-72
2021/03/25 06:38:01;;;;;;;95.10;41.77;;;;;;;;;;4379986;32;20178;-72
2021/03/25 06:40:29;;;;;;;89.77;40.47;;;;;;;;;;4390645;32;20162;-72
2021/03/25 06:43:14;;;;;;;84.73;39.27;;;;;;;;;;4390474;32;20165;-73
2021/03/25 06:45:43;;;;;;;91.13;41.07;;;;;;;;;;4388890;32;20298;-73
2021/03/25 06:48:08;;;;;;;84.43;39.07;;;;;;;;;;4390061;32;20601;-71
2021/03/25 06:50:36;;;;;;;84.07;37.73;;;;;;;;;;4404119;32;20145;-70
2021/03/25 06:53:13;;;;;;;94.00;41.20;;;;;;;;;;4405744;32;20250;-74
2021/03/25 06:55:39;;;;;;;87.17;39.50;;;;;;;;;;4403673;32;20234;-71
2021/03/25 06:58:06;;;;;;;87.57;40.97;;;;;;;;;;4421022;32;20142;-72
2021/03/25 07:00:34;;;;;;;87.57;39.37;;;;;;;;;;4420778;32;20145;-69
2021/03/25 07:03:02;;;;;;;85.13;39.80;;;;;;;;;;4419639;32;20540;-71
2021/03/25 07:05:29;;;;;;;83.83;39.37;;;;;;;;;;4420433;32;20233;-72
2021/03/25 07:07:58;;;;;;;82.43;38.20;;;;;;;;;;4405386;32;20177;-72
2021/03/25 07:10:24;;;;;;;80.70;37.93;;;;;;;;;;4414095;32;20181;-71
2021/03/25 07:12:50;;;;;;;83.23;40.53;;;;;;;;;;4390992;32;20218;-71
2021/03/25 07:15:23;;;;;;;86.80;40.23;;;;;;;;;;4391634;32;20606;-71
2021/03/25 07:17:50;;;;;;;81.33;39.40;;;;;;;;;;4403729;32;20560;-71
2021/03/25 07:20:22;;;;;;;82.07;37.90;;;;;;;;;;4391024;32;20224;-71
2021/03/25 07:23:06;;;;;;;81.70;36.63;;;;;;;;;;4391054;32;20170;-71
2021/03/25 07:25:33;;;;;;;79.90;36.60;;;;;;;;;;4389950;32;20612;-72
2021/03/25 07:27:59;;;;;;;73.53;36.93;;;;;;;;;;4390997;32;20198;-72
2021/03/25 07:30:25;;;;;;;74.47;35.73;;;;;;;;;;4377066;32;20181;-72
2021/03/25 07:32:50;;;;;;;74.03;35.90;;;;;;;;;;4376281;32;20236;-72
2021/03/25 07:35:22;;;;;;;71.67;35.70;;;;;;;;;;4387468;32;20492;-70
2021/03/25 07:37:47;;;;;;;80.07;36.73;;;;;;;;;;4382314;32;20166;-71
2021/03/25 07:40:24;;;;;;;76.83;34.97;;;;;;;;;;4399582;32;20225;-70
2021/03/25 07:42:49;;;;;;;81.70;38.40;;;;;;;;;;4403399;32;20185;-72
2021/03/25 07:45:28;;;;;;;75.03;37.00;;;;;;;;;;4390742;32;20258;-70
2021/03/25 07:47:55;;;;;;;77.13;35.80;;;;;;;;;;4409356;32;20154;-69
2021/03/25 07:50:20;;;;;;;71.37;36.97;;;;;;;;;;4417511;32;20540;-71
2021/03/25 07:52:45;;;;;;;66.63;33.77;;;;;;;;;;4409399;32;20180;-71
2021/03/25 07:55:12;;;;;;;73.63;36.33;;;;;;;;;;4406522;32;20142;-69
2021/03/25 07:57:42;;;;;;;68.83;34.50;;;;;;;;;;4392436;32;20192;-70
2021/03/25 08:00:14;;;;;;;76.00;36.13;;;;;;;;;;4408954;32;20138;-70
2021/03/25 08:02:40;;;;;;;77.93;36.57;;;;;;;;;;4406539;32;20170;-70
2021/03/25 08:05:28;;;;;;;67.80;34.73;;;;;;;;;;4395522;32;20609;-70
2021/03/25 08:07:55;;;;;;;68.30;35.43;;;;;;;;;;4405432;32;20158;-69
2021/03/25 08:10:23;;;;;;;66.73;34.03;;;;;;;;;;4392787;32;20170;-70
2021/03/25 08:12:49;;;;;;;63.97;32.90;;;;;;;;;;4392190;32;20608;-70
2021/03/25 08:15:34;;;;;;;68.50;34.07;;;;;;;;;;4407106;32;20161;-69
2021/03/25 08:18:15;;;;;;;67.37;33.33;;;;;;;;;;4408044;32;20177;-71
2021/03/25 08:20:56;;;;;;;63.75;33.33;;;;;;;;;;4420772;32;20149;-70
2021/03/25 08:23:21;;;;;;;66.87;31.98;;;;;;;;;;4412752;32;20865;-70
2021/03/25 08:25:51;;;;;;;59.97;31.35;;;;;;;;;;4406241;32;20138;-71
2021/03/25 08:28:19;;;;;;;65.57;32.22;;;;;;;;;;4405613;32;20146;-71
2021/03/25 08:31:01;;;;;;;69.20;33.40;;;;;;;;;;4406030;32;20134;-70
2021/03/25 08:33:43;;;;;;;60.42;32.70;;;;;;;;;;4392097;32;20225;-71
2021/03/25 08:36:22;;;;;;;65.78;34.55;;;;;;;;;;4405860;32;20701;-71
2021/03/25 08:38:55;;;;;;;70.07;33.83;;;;;;;;;;4405754;32;20165;-71
2021/03/25 08:41:23;;;;;;;70.78;34.92;;;;;;;;;;4406934;32;20169;-71
2021/03/25 08:43:56;;;;;;;80.78;37.00;;;;;;;;;;4404824;32;20190;-71
2021/03/25 08:46:27;;;;;;;78.95;38.03;;;;;;;;;;4421111;32;20145;-71
2021/03/25 08:49:01;;;;;;;72.47;38.95;;;;;;;;;;4399555;32;20221;-71
2021/03/25 08:51:38;;;;;;;89.55;41.45;;;;;;;;;;4405781;32;20150;-70
2021/03/25 08:54:18;;;;;;;85.10;42.35;;;;;;;;;;4406693;32;20563;-68
2021/03/25 08:56:51;;;;;;;90.30;39.33;;;;;;;;;;4407317;32;20146;-68
2021/03/25 08:59:20;;;;;;;94.10;42.00;;;;;;;;;;4406984;32;20523;-69
2021/03/25 09:02:04;;;;;;;81.05;40.03;;;;;;;;;;4405206;32;20196;-69
2021/03/25 09:04:35;;;;;;;73.30;36.90;;;;;;;;;;4377039;32;20470;-71
2021/03/25 09:07:03;;;;;;;72.05;36.30;;;;;;;;;;4418209;32;20176;-69
2021/03/25 09:09:28;;;;;;;79.78;37.95;;;;;;;;;;4420449;32;20626;-70
2021/03/25 09:11:55;;;;;;;62.42;33.13;;;;;;;;;;4420844;32;20531;-69
2021/03/25 09:14:21;;;;;;;64.93;33.30;;;;;;;;;;4421669;32;20209;-69
2021/03/25 09:16:46;;;;;;;65.53;33.55;;;;;;;;;;4415566;32;20403;-69
2021/03/25 09:19:18;;;;;;;63.20;33.15;;;;;;;;;;4418727;32;20496;-69
2021/03/25 09:21:47;;;;;;;70.10;33.45;;;;;;;;;;4421809;32;20168;-69
2021/03/25 09:24:14;;;;;;;58.58;29.50;;;;;;;;;;4413051;32;20231;-69
2021/03/25 09:26:49;;;;;;;55.88;29.35;;;;;;;;;;4396881;32;20231;-70
2021/03/25 09:29:14;;;;;;;54.92;28.85;;;;;;;;;;4397735;32;20157;-70
2021/03/25 09:31:42;;;;;;;55.90;29.23;;;;;;;;;;4390935;32;20173;-69
2021/03/25 09:34:10;;;;;;;56.25;28.12;;;;;;;;;;4390618;32;20142;-70
2021/03/25 09:36:35;;;;;;;54.25;28.35;;;;;;;;;;4398995;32;20535;-70
2021/03/25 09:39:00;;;;;;;45.17;24.87;;;;;;;;;;4406358;32;20499;-69
2021/03/25 09:41:26;;;;;;;41.05;23.23;;;;;;;;;;4405837;32;20260;-67
2021/03/25 09:43:55;;;;;;;39.85;21.87;;;;;;;;;;4405780;32;20169;-70
2021/03/25 09:46:28;;;;;;;47.25;24.52;;;;;;;;;;4406125;32;20142;-69
2021/03/25 09:48:55;;;;;;;48.42;26.05;;;;;;;;;;4404639;32;20174;-71
2021/03/25 09:51:28;;;;;;;43.83;23.42;;;;;;;;;;4404526;32;20186;-69
2021/03/25 09:53:55;;;;;;;48.65;24.42;;;;;;;;;;4404338;32;20142;-71
2021/03/25 09:56:29;;;;;;;52.42;24.65;;;;;;;;;;4404661;32;20543;-70
2021/03/25 09:58:55;;;;;;;57.00;26.80;;;;;;;;;;4404087;32;20164;-70
2021/03/25 10:01:40;;;;;;;64.57;30.23;;;;;;;;;;4403961;32;20158;-70
2021/03/25 10:04:24;;;;;;;69.23;31.47;;;;;;;;;;4401933;32;20290;-69
2021/03/25 10:06:52;;;;;;;73.40;33.33;;;;;;;;;;4420001;32;20173;-70
2021/03/25 10:09:17;;;;;;;65.10;31.50;;;;;;;;;;4419013;32;20172;-69
2021/03/25 10:11:47;;;;;;;49.45;23.35;;;;;;;;;;4405747;32;20195;-70
2021/03/25 10:14:31;;;;;;;55.57;25.50;;;;;;;;;;4415586;32;20219;-71
2021/03/25 10:16:57;;;;;;;64.97;29.98;;;;;;;;;;4413037;32;20176;-70
2021/03/25 10:19:41;;;;;;;69.30;31.12;;;;;;;;;;4392135;32;20209;-71
2021/03/25 10:22:15;;;;;;;70.05;31.23;;;;;;;;;;4398182;32;20170;-70
2021/03/25 10:24:43;;;;;;;70.30;31.52;;;;;;;;;;4387170;32;20197;-71
2021/03/25 10:27:11;;;;;;;59.05;28.10;;;;;;;;;;4374603;32;20522;-70
2021/03/25 10:29:36;;;;;;;63.67;27.70;;;;;;;;;;4389723;32;20154;-70
2021/03/25 10:32:03;;;;;;;60.58;26.33;;;;;;;;;;4388943;32;20189;-71
2021/03/25 10:34:34;;;;;;;66.13;29.17;;;;;;;;;;4387134;32;20249;-70
2021/03/25 10:37:18;;;;;;;70.37;29.70;;;;;;;;;;4388751;32;20555;-71
2021/03/25 10:39:44;;;;;;;77.25;30.27;;;;;;;;;;4388236;32;20338;-69
2021/03/25 10:42:24;;;;;;;70.53;29.73;;;;;;;;;;4390580;32;20214;-68
2021/03/25 10:44:49;;;;;;;75.80;30.90;;;;;;;;;;4390384;32;20536;-69
2021/03/25 10:47:20;;;;;;;70.47;30.55;;;;;;;;;;4395091;32;20180;-71
2021/03/25 10:49:50;;;;;;;68.32;30.48;;;;;;;;;;4390948;32;20239;-70
2021/03/25 10:52:24;;;;;;;68.55;28.87;;;;;;;;;;4404904;32;20210;-70
2021/03/25 10:54:49;;;;;;;63.33;28.40;;;;;;;;;;4391071;32;20209;-69
2021/03/25 10:57:17;;;;;;;63.97;28.42;;;;;;;;;;4407091;32;20181;-70
2021/03/25 11:00:06;;;;;;;65.57;28.33;;;;;;;;;;4402278;32;20170;-70
2021/03/25 11:02:38;;;;;;;65.53;27.92;;;;;;;;;;4381120;32;20186;-69
2021/03/25 11:05:23;;;;;;;61.30;27.83;;;;;;;;;;4374739;32;20158;-69
2021/03/25 11:07:50;;;;;;;63.55;27.52;;;;;;;;;;4396125;32;20716;-70
2021/03/25 11:10:17;;;;;;;53.05;26.87;;;;;;;;;;4395990;32;20227;-69
2021/03/25 11:12:43;;;;;;;53.85;26.17;;;;;;;;;;4380638;32;20193;-70
2021/03/25 11:15:14;;;;;;;57.20;25.73;;;;;;;;;;4389366;32;20189;-69
2021/03/25 11:17:40;;;;;;;56.97;26.05;;;;;;;;;;4398271;32;20265;-70
2021/03/25 11:20:07;;;;;;;48.67;23.55;;;;;;;;;;4392515;32;20158;-69
2021/03/25 11:22:33;;;;;;;49.72;24.90;;;;;;;;;;4397629;32;20154;-70
2021/03/25 11:24:59;;;;;;;48.58;22.42;;;;;;;;;;4407696;32;20219;-70
2021/03/25 11:27:26;;;;;;;41.83;22.02;;;;;;;;;;4390609;32;20169;-70
2021/03/25 11:29:59;;;;;;;39.25;18.08;;;;;;;;;;4393795;32;20201;-70
2021/03/25 11:32:37;;;;;;;40.72;20.40;;;;;;;;;;4404136;32;20142;-71
2021/03/25 11:35:21;;;;;;;26.60;15.98;;;;;;;;;;4404560;32;20242;-68
2021/03/25 11:37:47;;;;;;;29.60;15.95;;;;;;;;;;4408645;32;20260;-71
2021/03/25 11:40:15;;;;;;;26.50;14.73;;;;;;;;;;4395428;32;20170;-71
2021/03/25 11:42:41;;;;;;;27.67;15.20;;;;;;;;;;4422705;32;20142;-71
2021/03/25 11:45:07;;;;;;;27.70;14.23;;;;;;;;;;4408656;32;20165;-71
2021/03/25 11:47:45;;;;;;;25.40;15.43;;;;;;;;;;4421683;32;20209;-71
2021/03/25 11:50:20;;;;;;;24.85;14.43;;;;;;;;;;4394140;32;20213;-70
2021/03/25 11:52:52;;;;;;;24.98;14.87;;;;;;;;;;4400801;32;20205;-70
2021/03/25 11:55:20;;;;;;;30.88;18.10;;;;;;;;;;4396808;32;20184;-71
2021/03/25 11:57:46;;;;;;;24.50;16.65;;;;;;;;;;4392638;32;20181;-71
2021/03/25 12:00:13;;;;;;;28.27;16.60;;;;;;;;;;4398617;32;20158;-71
2021/03/25 12:02:41;;;;;;;25.88;17.27;;;;;;;;;;4390795;32;20673;-71
2021/03/25 12:05:25;;;;;;;28.12;18.20;;;;;;;;;;4391747;32;20597;-71
2021/03/25 12:08:00;;;;;;;31.70;19.10;;;;;;;;;;4376532;32;20185;-70
2021/03/25 12:10:26;;;;;;;28.75;18.05;;;;;;;;;;4384528;32;20180;-71
2021/03/25 12:12:51;;;;;;;24.08;15.93;;;;;;;;;;4404493;32;20177;-69
2021/03/25 12:15:16;;;;;;;24.20;15.13;;;;;;;;;;4407089;32;20143;-71
2021/03/25 12:17:51;;;;;;;20.98;12.45;;;;;;;;;;4408163;32;20237;-70
2021/03/25 12:20:22;;;;;;;23.60;12.63;;;;;;;;;;4400022;32;20203;-70
2021/03/25 12:22:47;;;;;;;25.77;13.30;;;;;;;;;;4399671;32;20178;-71
2021/03/25 12:25:13;;;;;;;22.13;13.23;;;;;;;;;;4405710;32;20174;-70
2021/03/25 12:27:38;;;;;;;22.60;13.05;;;;;;;;;;4395047;32;20211;-68
2021/03/25 12:30:03;;;;;;;20.67;12.35;;;;;;;;;;4385583;32;20216;-68
2021/03/25 12:32:31;;;;;;;19.23;11.18;;;;;;;;;;4390037;32;20604;-70
2021/03/25 12:34:56;;;;;;;20.88;10.43;;;;;;;;;;4379209;32;20255;-71
2021/03/25 12:37:25;;;;;;;18.23;9.93;;;;;;;;;;4391312;32;20158;-70
2021/03/25 12:39:50;;;;;;;19.10;8.70;;;;;;;;;;4378238;32;20404;-71
2021/03/25 12:42:16;;;;;;;17.25;7.03;;;;;;;;;;4406680;32;20434;-70
2021/03/25 12:44:41;;;;;;;13.27;6.50;;;;;;;;;;4404402;32;20198;-70
2021/03/25 12:47:08;;;;;;;16.23;6.60;;;;;;;;;;4405034;32;20176;-69
2021/03/25 12:49:33;;;;;;;11.38;5.15;;;;;;;;;;4404685;32;20253;-71
2021/03/25 12:51:58;;;;;;;12.30;5.00;;;;;;;;;;4391071;32;20266;-71
2021/03/25 12:54:23;;;;;;;7.55;3.47;;;;;;;;;;4392797;32;20572;-71
2021/03/25 12:56:49;;;;;;;7.05;3.60;;;;;;;;;;4405227;32;20178;-70
2021/03/25 12:59:15;;;;;;;6.97;3.60;;;;;;;;;;4405689;32;20682;-71
2021/03/25 13:01:41;;;;;;;9.30;3.28;;;;;;;;;;4390795;32;20282;-71
2021/03/25 13:04:07;;;;;;;10.93;3.45;;;;;;;;;;4405836;32;20150;-71
2021/03/25 13:06:32;;;;;;;7.95;3.10;;;;;;;;;;4404926;32;20573;-71
2021/03/25 13:08:57;;;;;;;10.70;2.95;;;;;;;;;;4391787;32;20225;-71
2021/03/25 13:11:25;;;;;;;7.70;2.97;;;;;;;;;;4385424;32;20546;-71
2021/03/25 13:13:51;;;;;;;5.78;2.47;;;;;;;;;;4375679;32;20162;-72
2021/03/25 13:16:16;;;;;;;7.90;2.58;;;;;;;;;;4403684;32;20210;-69
2021/03/25 13:18:41;;;;;;;4.93;2.25;;;;;;;;;;4392049;32;20194;-71
2021/03/25 13:21:07;;;;;;;5.53;2.00;;;;;;;;;;4406207;32;20146;-71
2021/03/25 13:23:32;;;;;;;9.18;2.20;;;;;;;;;;4405042;32;20307;-71
2021/03/25 13:25:57;;;;;;;8.38;2.40;;;;;;;;;;4394228;32;20185;-70
2021/03/25 13:28:23;;;;;;;8.10;2.10;;;;;;;;;;4391444;32;20165;-70
2021/03/25 13:30:49;;;;;;;7.03;2.12;;;;;;;;;;4409136;32;20146;-70
2021/03/25 13:33:15;;;;;;;4.43;1.75;;;;;;;;;;4410870;32;20146;-70
2021/03/25 13:35:41;;;;;;;8.02;1.70;;;;;;;;;;4416028;32;20214;-70
2021/03/25 13:38:06;;;;;;;3.65;1.77;;;;;;;;;;4390551;32;20177;-70
2021/03/25 13:40:33;;;;;;;4.95;1.90;;;;;;;;;;4377277;32;20219;-71
2021/03/25 13:42:58;;;;;;;6.50;1.67;;;;;;;;;;4401472;32;20142;-71
2021/03/25 13:45:24;;;;;;;4.75;1.58;;;;;;;;;;4388903;32;20198;-72
2021/03/25 13:47:49;;;;;;;3.47;1.30;;;;;;;;;;4391413;32;20248;-70
2021/03/25 13:50:18;;;;;;;4.75;1.60;;;;;;;;;;4393729;32;20513;-71
2021/03/25 13:52:44;;;;;;;6.87;1.60;;;;;;;;;;4405539;32;20192;-70
2021/03/25 13:55:11;;;;;;;5.18;1.40;;;;;;;;;;4405957;32;20185;-71
2021/03/25 13:57:36;;;;;;;4.03;1.45;;;;;;;;;;4406323;32;20248;-71
2021/03/25 14:00:03;;;;;;;3.90;1.20;;;;;;;;;;4408216;32;20150;-70
2021/03/25 14:02:28;;;;;;;6.22;1.37;;;;;;;;;;4389698;32;20300;-71
2021/03/25 14:04:54;;;;;;;4.18;1.30;;;;;;;;;;4403637;32;20203;-71
2021/03/25 14:07:19;;;;;;;4.60;1.42;;;;;;;;;;4392097;32;20370;-70
2021/03/25 14:09:44;;;;;;;7.12;1.40;;;;;;;;;;4392586;32;20300;-71
2021/03/25 14:12:10;;;;;;;4.70;1.50;;;;;;;;;;4391237;32;20277;-70
2021/03/25 14:14:35;;;;;;;4.37;1.10;;;;;;;;;;4404267;32;20777;-71
2021/03/25 14:17:00;;;;;;;4.62;1.33;;;;;;;;;;4402860;32;20153;-71
2021/03/25 14:19:25;;;;;;;4.93;1.37;;;;;;;;;;4391449;32;20331;-71
2021/03/25 14:21:50;;;;;;;3.92;1.37;;;;;;;;;;4404124;32;20161;-70
2021/03/25 14:24:15;;;;;;;4.80;1.77;;;;;;;;;;4389402;32;20192;-72
2021/03/25 14:26:41;;;;;;;3.00;1.02;;;;;;;;;;4387608;32;20266;-71
2021/03/25 14:29:06;;;;;;;4.25;0.93;;;;;;;;;;4398881;32;20206;-73
2021/03/25 14:31:31;;;;;;;2.58;0.70;;;;;;;;;;4390123;32;20314;-71
2021/03/25 14:33:57;;;;;;;9.50;0.98;;;;;;;;;;4390258;32;20324;-71